Time;durP1;ratioP1;P1;durP2;ratioP2;P2;SDS_P1;SDS_P2;PMS_P1;PMS_P2;Temp;Humidity;BMP_temperature;BMP_pressure;BME280_temperature;BME280_humidity;BME280_pressure;Samples;Min_cycle;Max_cycle;Signal;HPM_P1;HPM_P2
2023/02/06 10:01:06;;;;;;;12.70;9.87;;;;;;;4.67;100.00;100992.50;5109467;28;20570;-80
2023/02/06 10:03:47;;;;;;;12.27;8.33;;;;;;;5.39;100.00;101021.84;5091951;28;38509;-84
2023/02/06 10:06:21;;;;;;;12.80;8.90;;;;;;;5.83;95.60;101007.47;5091767;28;42122;-84
2023/02/06 10:08:57;;;;;;;12.57;8.43;;;;;;;6.21;92.21;100978.19;5091946;28;42730;-87
2023/02/06 10:11:35;;;;;;;11.80;8.13;;;;;;;6.75;89.08;101012.66;5091265;28;42240;-88
2023/02/06 10:14:07;;;;;;;11.67;7.97;;;;;;;6.94;86.13;101018.56;5091292;28;40463;-81
2023/02/06 10:16:41;;;;;;;11.03;8.70;;;;;;;6.87;85.27;101001.97;5087480;28;41112;-78
2023/02/06 10:19:18;;;;;;;9.90;7.43;;;;;;;6.87;83.89;101022.19;5086913;28;44325;-85
2023/02/06 10:21:52;;;;;;;11.97;8.63;;;;;;;6.85;82.84;101024.81;5085789;28;40965;-85
2023/02/06 10:24:30;;;;;;;10.80;7.60;;;;;;;6.74;81.82;101003.91;5090978;28;40206;-86
2023/02/06 10:27:01;;;;;;;9.97;7.33;;;;;;;6.84;81.30;101013.41;5090955;28;40688;-87
2023/02/06 10:29:32;;;;;;;11.53;8.00;;;;;;;6.88;80.80;101009.00;5125559;27;41772;-88
2023/02/06 10:32:15;;;;;;;11.57;7.50;;;;;;;6.83;80.46;100990.59;5088015;28;42471;-93
2023/02/06 10:35:00;;;;;;;11.23;7.33;;;;;;;6.97;79.51;100986.91;5088006;28;40069;-83
2023/02/06 10:38:03;;;;;;;9.67;7.03;;;;;;;7.16;78.47;100998.94;5071100;28;40321;-85
2023/02/06 10:40:40;;;;;;;11.37;8.20;;;;;;;7.28;76.71;101004.03;5074002;28;42282;-85
2023/02/06 10:43:19;;;;;;;11.83;8.37;;;;;;;7.54;77.36;101011.56;5091220;28;41334;-86
2023/02/06 10:45:52;;;;;;;11.03;8.67;;;;;;;7.51;76.42;100980.81;5124707;27;39261;-83
2023/02/06 10:48:31;;;;;;;9.63;8.03;;;;;;;7.70;75.40;100996.34;5091188;28;40657;-90
2023/02/06 10:51:08;;;;;;;10.70;9.20;;;;;;;7.68;75.55;100977.03;5087495;28;44104;-90
2023/02/06 10:53:39;;;;;;;12.23;8.20;;;;;;;8.06;75.57;101006.25;5087686;28;40917;-87
2023/02/06 10:56:11;;;;;;;9.47;8.00;;;;;;;8.02;72.66;100988.75;5079797;28;39286;-88
2023/02/06 10:58:43;;;;;;;11.73;8.13;;;;;;;8.06;72.61;100994.81;5090738;28;41769;-87
2023/02/06 11:01:14;;;;;;;10.77;8.10;;;;;;;8.82;73.08;100978.38;5115365;27;41631;-91
2023/02/06 11:03:51;;;;;;;9.90;8.37;;;;;;;12.80;67.23;101002.00;5087955;28;41945;-88
2023/02/06 11:06:22;;;;;;;9.43;7.23;;;;;;;16.91;55.50;101032.13;5078291;28;40770;-89
2023/02/06 11:08:50;;;;;;;7.90;7.10;;;;;;;19.78;47.44;101031.91;5070738;28;40875;-92
2023/02/06 11:11:20;;;;;;;7.93;7.10;;;;;;;21.60;43.23;101051.44;5075260;28;41822;-86
2023/02/06 11:13:52;;;;;;;7.97;7.17;;;;;;;23.42;38.55;101084.19;5078811;28;41429;-87
2023/02/06 11:16:25;;;;;;;7.67;6.87;;;;;;;24.92;35.56;101089.63;5077029;28;39069;-90
2023/02/06 11:18:58;;;;;;;6.77;5.73;;;;;;;25.10;34.21;101055.50;5077366;28;40326;-92
2023/02/06 11:21:54;;;;;;;8.10;6.43;;;;;;;24.38;33.69;101090.66;5077394;28;42794;-89
2023/02/06 11:24:24;;;;;;;7.97;6.17;;;;;;;23.14;35.38;101058.50;5074049;28;40732;-87
2023/02/06 11:26:56;;;;;;;7.20;5.57;;;;;;;21.72;36.71;101066.72;5094042;28;39951;-89
2023/02/06 11:29:27;;;;;;;4.27;3.70;;;;;;;19.90;36.71;101074.13;5076614;28;40735;-85
2023/02/06 11:31:58;;;;;;;6.07;4.10;;;;;;;18.16;39.26;101022.38;5072694;28;42172;-87
2023/02/06 11:34:32;;;;;;;7.23;4.23;;;;;;;16.86;40.50;101031.50;5056138;28;41772;-85
2023/02/06 11:37:02;;;;;;;6.47;4.97;;;;;;;15.98;41.44;101034.28;5105993;28;39142;-87
2023/02/06 11:39:32;;;;;;;7.27;4.77;;;;;;;15.68;42.11;101006.44;5110434;28;40938;-87
2023/02/06 11:42:03;;;;;;;5.90;4.63;;;;;;;17.34;43.58;100974.38;5072452;28;41903;-86
2023/02/06 11:44:37;;;;;;;7.13;4.80;;;;;;;19.35;40.57;101002.41;5055932;28;41527;-87
2023/02/06 11:47:29;;;;;;;5.60;4.57;;;;;;;19.54;39.12;100992.19;5073175;28;40371;-87
2023/02/06 11:50:20;;;;;;;6.50;4.80;;;;;;;20.98;35.87;101016.38;5076328;28;42739;-88
2023/02/06 11:52:48;;;;;;;5.23;4.60;;;;;;;20.90;36.15;101012.50;5076076;28;44786;-86
2023/02/06 11:55:23;;;;;;;6.17;4.80;;;;;;;21.63;36.61;100999.09;5109931;28;42352;-89
2023/02/06 11:58:03;;;;;;;6.83;5.00;;;;;;;22.84;34.93;100999.66;5076944;28;39976;-87
2023/02/06 12:00:31;;;;;;;5.33;4.53;;;;;;;22.27;34.43;101008.59;5073057;28;40831;-87
2023/02/06 12:03:00;;;;;;;7.13;5.00;;;;;;;22.28;34.12;101004.91;5055841;28;43118;-86
2023/02/06 12:05:35;;;;;;;6.00;4.13;;;;;;;21.13;34.86;101009.91;5075321;28;43280;-87
2023/02/06 12:08:06;;;;;;;5.17;4.23;;;;;;;19.73;36.64;100973.03;5110533;28;38837;-88
2023/02/06 12:10:39;;;;;;;6.43;5.20;;;;;;;18.40;36.20;100969.06;5075283;28;40670;-86
2023/02/06 12:13:13;;;;;;;5.40;4.83;;;;;;;17.78;39.11;100984.41;5075826;28;41936;-86
2023/02/06 12:15:44;;;;;;;4.90;4.47;;;;;;;17.14;39.33;100964.81;5077886;28;42038;-86
2023/02/06 12:18:16;;;;;;;4.83;4.40;;;;;;;16.42;40.12;100945.56;5075975;28;40447;-88
2023/02/06 12:20:51;;;;;;;6.00;4.73;;;;;;;16.02;42.05;100944.13;5074045;28;43321;-83
2023/02/06 12:23:24;;;;;;;5.53;4.63;;;;;;;15.31;42.28;100882.69;5058251;28;41820;-87
2023/02/06 12:25:56;;;;;;;5.37;4.37;;;;;;;15.01;42.61;100926.88;5079057;28;42384;-85
2023/02/06 12:28:29;;;;;;;5.67;4.60;;;;;;;15.15;43.55;100892.38;5077472;28;41728;-83
2023/02/06 12:31:03;;;;;;;6.37;4.73;;;;;;;16.03;42.71;100906.63;5077900;28;41261;-82
2023/02/06 12:33:37;;;;;;;5.87;4.13;;;;;;;15.58;42.67;100903.66;5057288;28;42975;-87
2023/02/06 12:36:14;;;;;;;5.77;4.00;;;;;;;15.38;42.87;100899.25;5064947;28;41273;-88
2023/02/06 12:38:55;;;;;;;5.23;4.73;;;;;;;14.76;43.28;100895.16;5076406;28;38919;-89
2023/02/06 12:41:37;;;;;;;5.87;4.67;;;;;;;14.33;43.95;100893.59;5071906;28;41791;-80
2023/02/06 12:44:18;;;;;;;5.27;4.43;;;;;;;13.99;44.56;100907.56;5075216;28;41959;-86
2023/02/06 12:46:52;;;;;;;5.10;4.13;;;;;;;12.95;45.23;100809.94;5075955;28;41397;-90
2023/02/06 12:49:26;;;;;;;6.10;4.13;;;;;;;13.00;45.81;100844.31;5057737;28;38663;-86
2023/02/06 12:52:04;;;;;;;6.93;3.93;;;;;;;12.85;46.58;100840.50;5090901;28;40917;-88
2023/02/06 12:54:36;;;;;;;4.97;4.10;;;;;;;12.63;47.37;100844.91;5073872;28;43424;-86
2023/02/06 12:57:09;;;;;;;6.43;3.93;;;;;;;12.27;46.46;100869.31;5089149;28;42524;-87
2023/02/06 13:00:08;;;;;;;4.93;4.00;;;;;;;12.05;48.19;100873.69;5075429;28;40273;-89
2023/02/06 13:02:59;;;;;;;5.87;4.00;;;;;;;11.98;48.73;100867.75;5075417;28;42124;-83
2023/02/06 13:05:30;;;;;;;5.70;4.10;;;;;;;11.93;47.99;100896.25;5074689;28;45414;-90
2023/02/06 13:08:07;;;;;;;4.50;3.63;;;;;;;11.65;48.47;100872.41;5075782;28;41355;-89
2023/02/06 13:10:37;;;;;;;4.93;4.43;;;;;;;11.45;49.49;100874.91;5075052;28;38663;-88
2023/02/06 13:13:06;;;;;;;5.20;3.20;;;;;;;11.21;50.03;100883.69;5092597;28;40853;-92
2023/02/06 13:15:37;;;;;;;4.10;3.30;;;;;;;10.98;50.14;100885.28;5071447;28;42969;-86
2023/02/06 13:18:36;;;;;;;4.17;3.13;;;;;;;10.77;50.43;100888.59;5055649;28;41062;-87
2023/02/06 13:21:15;;;;;;;5.93;3.00;;;;;;;10.53;50.57;100886.69;5063196;28;40307;-87
2023/02/06 13:23:52;;;;;;;5.03;3.40;;;;;;;10.32;50.42;100878.47;5109152;28;40629;-86
2023/02/06 13:26:59;;;;;;;3.43;3.13;;;;;;;9.88;51.36;100850.59;5108458;28;43430;-90
2023/02/06 13:29:27;;;;;;;7.03;4.20;;;;;;;9.92;52.27;100875.19;5075110;28;42153;-86
2023/02/06 13:32:28;;;;;;;4.67;3.63;;;;;;;9.84;52.89;100877.19;5091277;28;38949;-85
2023/02/06 13:35:05;;;;;;;4.30;3.50;;;;;;;9.64;52.88;100860.03;5074821;28;42945;-85
2023/02/06 13:37:36;;;;;;;3.77;3.03;;;;;;;9.58;53.12;100868.16;5054756;28;41947;-86
2023/02/06 13:40:21;;;;;;;5.30;3.17;;;;;;;9.44;53.37;100874.72;5071385;28;41910;-87
2023/02/06 13:42:52;;;;;;;6.47;3.50;;;;;;;9.18;53.19;100872.72;5075576;28;39025;-88
2023/02/06 13:45:25;;;;;;;3.93;3.47;;;;;;;9.12;53.93;100881.69;5074457;28;40828;-88
2023/02/06 13:48:25;;;;;;;4.60;3.50;;;;;;;9.01;54.98;100875.78;5075110;28;42282;-88
2023/02/06 13:51:18;;;;;;;4.10;3.70;;;;;;;8.90;55.24;100854.88;5091232;28;41285;-84
2023/02/06 13:54:35;;;;;;;5.70;4.17;;;;;;;9.09;55.93;100865.00;5074790;28;40334;-83
2023/02/06 13:57:35;;;;;;;5.07;4.13;;;;;;;9.13;55.29;100862.28;4977823;28;41862;-87
2023/02/06 14:00:14;;;;;;;3.97;3.33;;;;;;;9.32;53.33;100871.47;4977432;28;42284;-88
2023/02/06 14:02:46;;;;;;;4.97;2.83;;;;;;;9.32;53.48;100863.53;5028284;28;42698;-88
2023/02/06 14:05:18;;;;;;;3.87;2.73;;;;;;;9.48;52.58;100885.19;5055621;28;40776;-87
2023/02/06 14:08:21;;;;;;;3.23;2.53;;;;;;;9.63;52.25;100903.31;5074137;28;42705;-87
2023/02/06 14:11:21;;;;;;;2.43;2.10;;;;;;;9.64;52.01;100898.88;5011527;28;41705;-86
2023/02/06 14:14:13;;;;;;;2.60;2.40;;;;;;;9.54;52.47;100884.13;5070996;28;42027;-86
2023/02/06 14:16:49;;;;;;;3.07;2.33;;;;;;;9.47;52.15;100882.56;5070322;28;38778;-90
2023/02/06 14:19:28;;;;;;;3.20;2.10;;;;;;;9.28;50.07;100896.25;5054982;28;41037;-88
2023/02/06 14:22:02;;;;;;;1.67;1.57;;;;;;;9.19;50.32;100895.59;5069258;28;41991;-87
2023/02/06 14:24:45;;;;;;;3.13;2.03;;;;;;;9.02;50.98;100886.28;5090977;28;41316;-87
2023/02/06 14:27:32;;;;;;;2.83;1.93;;;;;;;9.00;50.10;100893.41;5073473;28;39071;-84
2023/02/06 14:30:07;;;;;;;3.73;2.53;;;;;;;8.87;50.78;100894.59;5072993;28;42123;-83
2023/02/06 14:32:46;;;;;;;1.93;1.60;;;;;;;8.79;49.97;100920.31;5088607;28;43070;-86
2023/02/06 14:35:27;;;;;;;2.43;2.17;;;;;;;8.50;50.21;100899.84;5086748;28;43098;-87
2023/02/06 14:38:11;;;;;;;2.37;1.60;;;;;;;8.40;49.67;100908.84;5071239;28;38839;-85
2023/02/06 14:40:43;;;;;;;3.47;2.00;;;;;;;8.34;50.91;100913.38;5085746;28;40933;-86
2023/02/06 14:43:15;;;;;;;2.40;2.03;;;;;;;7.99;50.86;100880.63;5086622;28;42750;-84
2023/02/06 14:45:50;;;;;;;2.80;2.07;;;;;;;7.96;51.20;100888.59;5085374;28;42356;-83
2023/02/06 14:48:22;;;;;;;4.27;1.90;;;;;;;7.91;51.28;100901.00;5077111;28;39148;-81
2023/02/06 14:50:53;;;;;;;4.83;2.20;;;;;;;7.80;51.69;100888.00;5074396;28;42549;-92
2023/02/06 14:53:26;;;;;;;3.83;2.00;;;;;;;7.67;51.55;100880.34;5076023;28;41859;-86
2023/02/06 14:56:06;;;;;;;2.03;1.67;;;;;;;7.64;52.24;100880.41;5074484;28;44641;-87
2023/02/06 14:58:35;;;;;;;9.03;5.07;;;;;;;7.52;52.36;100874.47;5076246;28;38734;-86
2023/02/06 15:01:20;;;;;;;7.07;3.80;;;;;;;7.39;52.56;100870.31;5073985;28;41792;-90
2023/02/06 15:03:51;;;;;;;2.10;1.90;;;;;;;7.37;52.91;100869.47;5072767;28;43033;-85
2023/02/06 15:06:31;;;;;;;3.70;2.17;;;;;;;7.46;53.23;100885.09;5092247;28;41802;-84
2023/02/06 15:09:00;;;;;;;3.70;2.27;;;;;;;7.47;53.65;100878.94;5087532;28;40196;-85
2023/02/06 15:11:31;;;;;;;4.40;1.83;;;;;;;7.46;54.64;100871.94;5076727;28;41969;-82
2023/02/06 15:14:01;;;;;;;3.47;2.00;;;;;;;7.40;54.73;100864.16;5090845;28;43012;-87
2023/02/06 15:16:31;;;;;;;3.67;2.20;;;;;;;7.26;54.21;100874.06;5088732;28;42907;-86
2023/02/06 15:19:11;;;;;;;3.40;2.40;;;;;;;7.06;54.49;100855.03;5075350;28;40092;-84
2023/02/06 15:21:42;;;;;;;2.90;2.23;;;;;;;6.95;55.34;100846.44;5076065;28;41209;-84
2023/02/06 15:24:35;;;;;;;4.27;2.20;;;;;;;6.54;54.79;100800.56;5075371;28;43015;-87
2023/02/06 15:27:11;;;;;;;5.93;2.30;;;;;;;6.68;54.51;100859.13;5072833;28;41285;-84
2023/02/06 15:29:39;;;;;;;2.97;2.17;;;;;;;6.56;55.42;100856.69;5076017;28;39384;-87
2023/02/06 15:32:21;;;;;;;3.20;2.37;;;;;;;6.57;56.14;100862.81;5074567;28;40494;-84
2023/02/06 15:34:49;;;;;;;2.27;2.07;;;;;;;6.39;57.13;100850.81;5076528;28;42014;-84
2023/02/06 15:37:26;;;;;;;3.57;2.20;;;;;;;6.29;56.93;100838.66;5076301;28;41120;-86
2023/02/06 15:39:54;;;;;;;3.27;2.10;;;;;;;6.36;56.90;100871.88;5077123;28;38647;-84
2023/02/06 15:42:22;;;;;;;3.93;2.00;;;;;;;6.16;57.07;100874.78;5093454;28;42673;-84
2023/02/06 15:44:51;;;;;;;3.80;2.37;;;;;;;5.87;57.67;100851.41;5076889;28;42961;-86
2023/02/06 15:47:21;;;;;;;2.37;2.03;;;;;;;5.81;58.43;100845.38;5076722;28;43469;-86
2023/02/06 15:49:51;;;;;;;5.63;2.23;;;;;;;5.85;58.58;100858.44;5076809;28;39155;-86
2023/02/06 15:52:35;;;;;;;3.43;2.80;;;;;;;5.70;59.19;100863.88;5076867;28;40704;-86
2023/02/06 15:55:04;;;;;;;2.90;2.30;;;;;;;5.59;59.52;100839.44;5077011;28;43269;-86
2023/02/06 15:57:34;;;;;;;2.90;2.60;;;;;;;5.60;59.57;100836.81;5076752;28;42158;-87
2023/02/06 16:00:08;;;;;;;3.90;2.57;;;;;;;5.65;59.96;100855.19;5076215;28;39108;-86
2023/02/06 16:02:41;;;;;;;3.30;2.30;;;;;;;5.60;59.86;100846.44;5094471;28;41745;-85
2023/02/06 16:05:23;;;;;;;4.10;2.70;;;;;;;5.44;60.25;100815.97;5076633;28;41809;-84
2023/02/06 16:07:51;;;;;;;3.23;2.53;;;;;;;5.49;60.57;100835.19;5076664;28;42648;-86
2023/02/06 16:10:23;;;;;;;4.70;2.90;;;;;;;5.43;60.61;100832.63;5076475;28;38465;-86
2023/02/06 16:12:52;;;;;;;4.33;2.90;;;;;;;5.41;60.97;100854.53;5076658;28;40423;-85
2023/02/06 16:15:33;;;;;;;4.87;3.10;;;;;;;5.40;61.48;100855.41;5076495;28;43611;-85
2023/02/06 16:18:19;;;;;;;6.00;3.30;;;;;;;5.35;61.38;100864.22;5076415;28;41125;-85
2023/02/06 16:20:47;;;;;;;3.97;3.00;;;;;;;5.17;61.59;100857.38;5077782;28;40486;-85
2023/02/06 16:23:22;;;;;;;4.00;3.17;;;;;;;5.23;62.05;100862.56;5076458;28;40626;-85
2023/02/06 16:26:00;;;;;;;4.47;2.87;;;;;;;5.22;62.35;100860.81;5076048;28;43532;-87
2023/02/06 16:28:28;;;;;;;3.43;3.10;;;;;;;4.94;62.45;100827.81;5090377;28;43216;-85
2023/02/06 16:30:59;;;;;;;4.17;3.60;;;;;;;5.05;63.22;100868.88;5076019;28;39072;-84
2023/02/06 16:33:37;;;;;;;4.63;3.60;;;;;;;4.89;64.02;100867.22;5076231;28;42158;-85
2023/02/06 16:36:05;;;;;;;5.23;3.70;;;;;;;4.60;64.81;100830.69;5076220;28;41930;-84
2023/02/06 16:38:33;;;;;;;4.53;3.40;;;;;;;4.63;64.61;100846.41;5075971;28;42744;-86
2023/02/06 16:41:01;;;;;;;5.07;3.30;;;;;;;4.58;64.75;100856.06;5075807;28;41852;-84
2023/02/06 16:43:30;;;;;;;4.77;3.73;;;;;;;4.48;65.10;100856.13;5076246;28;41061;-86
2023/02/06 16:46:00;;;;;;;5.63;3.80;;;;;;;4.31;65.78;100845.75;5078669;28;42782;-85
2023/02/06 16:48:30;;;;;;;4.93;3.60;;;;;;;4.30;66.67;100859.72;5102030;28;41213;-85
2023/02/06 16:50:59;;;;;;;5.57;3.70;;;;;;;4.12;66.81;100844.94;5085369;28;40185;-84
2023/02/06 16:53:28;;;;;;;7.27;4.10;;;;;;;4.08;68.07;100852.84;5085112;28;40821;-85
2023/02/06 16:55:56;;;;;;;5.93;4.00;;;;;;;4.02;68.46;100874.72;5084802;28;43868;-85
2023/02/06 16:58:27;;;;;;;5.07;3.90;;;;;;;3.84;69.03;100878.25;5080597;28;41370;-84
2023/02/06 17:00:55;;;;;;;5.10;4.40;;;;;;;3.64;69.23;100861.72;5075920;28;40038;-86
2023/02/06 17:03:23;;;;;;;8.03;4.80;;;;;;;3.65;69.52;100870.44;5075559;28;43047;-85
2023/02/06 17:05:52;;;;;;;6.60;4.37;;;;;;;3.43;70.46;100867.00;5075579;28;42685;-85
2023/02/06 17:08:22;;;;;;;6.30;4.50;;;;;;;3.50;70.18;100893.19;5074899;28;42351;-85
2023/02/06 17:10:50;;;;;;;6.83;4.73;;;;;;;3.44;70.59;100880.09;5092410;28;40067;-84
2023/02/06 17:13:21;;;;;;;6.20;4.33;;;;;;;3.30;70.82;100855.66;5073268;28;41198;-89
2023/02/06 17:15:51;;;;;;;6.93;4.73;;;;;;;3.44;71.34;100879.22;5072997;28;42541;-90
2023/02/06 17:18:21;;;;;;;6.20;4.87;;;;;;;3.61;70.71;100887.91;5089157;28;43046;-84
2023/02/06 17:20:51;;;;;;;5.73;4.40;;;;;;;3.44;70.75;100855.66;5074083;28;39890;-83
2023/02/06 17:23:21;;;;;;;5.40;4.27;;;;;;;3.46;71.18;100877.47;5074492;28;41953;-88
2023/02/06 17:25:50;;;;;;;5.50;4.17;;;;;;;3.40;71.45;100887.94;5074719;28;41814;-85
2023/02/06 17:28:20;;;;;;;7.73;4.70;;;;;;;3.30;72.40;100899.31;5074536;28;41298;-86
2023/02/06 17:30:49;;;;;;;5.70;4.50;;;;;;;3.28;72.37;100901.06;5074631;28;38756;-88
2023/02/06 17:33:17;;;;;;;6.87;4.50;;;;;;;3.13;72.93;100894.94;5074420;28;43855;-86
2023/02/06 17:35:47;;;;;;;6.33;4.30;;;;;;;3.08;72.95;100885.34;5075512;28;44796;-87
2023/02/06 17:38:15;;;;;;;7.37;5.00;;;;;;;3.03;73.17;100887.09;5071347;28;42278;-90
2023/02/06 17:40:45;;;;;;;6.03;4.93;;;;;;;2.97;73.64;100874.84;5055097;28;38789;-84
2023/02/06 17:43:13;;;;;;;7.60;5.10;;;;;;;3.05;73.08;100881.00;5090583;28;40547;-91
2023/02/06 17:45:41;;;;;;;5.70;4.73;;;;;;;3.09;72.72;100887.94;5091650;28;43509;-85
2023/02/06 17:48:09;;;;;;;6.87;4.80;;;;;;;3.19;73.03;100900.19;5073941;28;44294;-86
2023/02/06 17:50:39;;;;;;;6.97;5.50;;;;;;;3.10;73.75;100884.47;5055792;28;40332;-88
2023/02/06 17:53:09;;;;;;;7.10;4.50;;;;;;;3.13;74.32;100892.31;5106153;28;41741;-82
2023/02/06 17:55:37;;;;;;;6.73;4.97;;;;;;;3.23;73.76;100891.44;5091549;28;45194;-84
2023/02/06 17:58:06;;;;;;;5.27;4.33;;;;;;;3.34;73.71;100914.16;5070666;28;42500;-87
2023/02/06 18:00:34;;;;;;;5.83;4.00;;;;;;;3.33;73.83;100917.66;5088213;28;38965;-84
2023/02/06 18:03:03;;;;;;;6.33;4.47;;;;;;;3.31;73.42;100906.31;5071443;28;40867;-83
2023/02/06 18:05:32;;;;;;;4.67;3.90;;;;;;;3.43;73.18;100915.03;5074618;28;42992;-86
2023/02/06 18:07:59;;;;;;;5.90;4.20;;;;;;;3.46;73.29;100911.53;5090643;28;42271;-84
2023/02/06 18:10:27;;;;;;;5.03;4.10;;;;;;;3.46;73.44;100915.00;5074273;28;40267;-83
2023/02/06 18:12:55;;;;;;;7.57;4.20;;;;;;;3.36;73.20;100896.66;5070346;28;40627;-84
2023/02/06 18:15:24;;;;;;;6.70;4.23;;;;;;;3.38;73.06;100905.41;5070843;28;44360;-86
2023/02/06 18:17:53;;;;;;;7.37;4.47;;;;;;;3.43;73.67;100922.00;5086916;28;42683;-83
2023/02/06 18:20:21;;;;;;;8.43;4.47;;;;;;;3.34;73.81;100914.16;5074465;28;39856;-86
2023/02/06 18:22:49;;;;;;;5.97;4.27;;;;;;;3.45;73.71;100938.59;5074000;28;41980;-87
2023/02/06 18:25:17;;;;;;;6.53;4.30;;;;;;;3.36;73.80;100915.88;5057689;28;42339;-82
2023/02/06 18:27:45;;;;;;;5.40;4.20;;;;;;;3.49;73.80;100940.31;5072535;28;42053;-85
2023/02/06 18:30:14;;;;;;;8.87;5.00;;;;;;;3.36;73.89;100922.88;5077807;28;41719;-86
2023/02/06 18:32:43;;;;;;;6.97;5.20;;;;;;;3.50;73.77;100944.69;5076948;28;43056;-83
2023/02/06 18:35:13;;;;;;;6.90;4.50;;;;;;;3.37;74.08;100919.38;5077683;28;41856;-85
2023/02/06 18:37:42;;;;;;;5.83;4.60;;;;;;;3.50;73.65;100931.59;5077008;28;43406;-84
2023/02/06 18:40:10;;;;;;;7.37;4.80;;;;;;;3.42;73.59;100922.88;5077053;28;39074;-84
2023/02/06 18:42:53;;;;;;;5.70;4.80;;;;;;;3.43;73.93;100919.38;5073435;28;42226;-83
2023/02/06 18:45:23;;;;;;;7.90;4.93;;;;;;;3.52;73.95;100933.34;5074045;28;42994;-84
2023/02/06 18:47:52;;;;;;;6.60;4.57;;;;;;;3.42;73.58;100909.78;5072790;28;41282;-88
2023/02/06 18:50:20;;;;;;;7.53;5.90;;;;;;;3.49;73.89;100915.00;5095054;28;40311;-84
2023/02/06 18:52:48;;;;;;;6.90;5.57;;;;;;;3.38;74.11;100910.66;5073365;28;41129;-86
2023/02/06 18:55:16;;;;;;;5.90;4.93;;;;;;;3.25;74.39;100910.66;5056907;28;42619;-85
2023/02/06 18:57:45;;;;;;;7.47;4.63;;;;;;;3.29;74.16;100931.59;5071647;28;40955;-83
2023/02/06 19:00:15;;;;;;;6.37;4.27;;;;;;;3.21;74.72;100929.00;5076560;28;41199;-85
2023/02/06 19:02:43;;;;;;;5.07;4.03;;;;;;;3.14;74.47;100933.34;5076654;28;40628;-83
2023/02/06 19:05:12;;;;;;;6.07;4.40;;;;;;;2.96;74.91;100920.25;5076926;28;42712;-84
2023/02/06 19:07:41;;;;;;;5.50;4.43;;;;;;;2.85;75.00;100901.00;5076431;28;41209;-83
2023/02/06 19:10:11;;;;;;;6.53;4.80;;;;;;;3.15;74.48;100955.16;5076581;28;39048;-85
2023/02/06 19:12:39;;;;;;;7.13;5.97;;;;;;;3.16;74.22;100949.94;5093831;28;41291;-82
2023/02/06 19:15:08;;;;;;;6.63;5.77;;;;;;;3.29;74.83;100953.44;5093869;28;42039;-83
2023/02/06 19:17:36;;;;;;;5.60;5.00;;;;;;;3.34;74.10;100956.91;5075566;28;42249;-85
2023/02/06 19:20:05;;;;;;;6.27;4.53;;;;;;;3.32;74.27;100955.19;5093886;28;40056;-86
2023/02/06 19:22:35;;;;;;;5.70;5.03;;;;;;;3.24;74.16;100935.09;5093097;28;41747;-86
2023/02/06 19:25:05;;;;;;;4.93;4.30;;;;;;;3.40;74.08;100956.91;5077300;28;41825;-82
2023/02/06 19:27:33;;;;;;;3.80;3.40;;;;;;;3.30;74.21;100933.34;5072748;28;42072;-85
2023/02/06 19:30:01;;;;;;;4.53;4.07;;;;;;;3.37;74.43;100941.19;5073409;28;41228;-83
2023/02/06 19:32:31;;;;;;;5.27;4.17;;;;;;;3.40;74.19;100945.56;5068290;28;42466;-81
2023/02/06 19:34:58;;;;;;;5.53;4.07;;;;;;;3.34;74.02;100932.50;5091906;28;43822;-85
2023/02/06 19:37:26;;;;;;;3.63;3.27;;;;;;;3.43;73.95;100956.06;5076347;28;42454;-85
2023/02/06 19:39:56;;;;;;;6.27;4.00;;;;;;;3.46;73.90;100950.81;5076806;28;39010;-86
2023/02/06 19:42:24;;;;;;;4.23;3.47;;;;;;;3.37;73.78;100945.56;5076001;28;42020;-84
2023/02/06 19:44:53;;;;;;;4.93;3.97;;;;;;;3.49;73.93;100956.03;5094179;28;42585;-85
2023/02/06 19:47:22;;;;;;;4.23;3.50;;;;;;;3.50;73.76;100963.03;5076200;28;41397;-85
2023/02/06 19:49:51;;;;;;;3.97;3.57;;;;;;;3.47;74.01;100953.41;5093426;28;40052;-86
2023/02/06 19:52:20;;;;;;;4.10;3.47;;;;;;;3.44;73.83;100942.09;5092984;28;40553;-85
2023/02/06 19:54:48;;;;;;;4.33;3.87;;;;;;;3.55;73.57;100966.53;5076092;28;43400;-85
2023/02/06 19:57:18;;;;;;;4.93;4.23;;;;;;;3.50;73.59;100952.56;5076145;28;41236;-85
2023/02/06 19:59:46;;;;;;;6.50;4.40;;;;;;;3.52;73.64;100956.03;5075987;28;39832;-83
2023/02/06 20:02:15;;;;;;;4.53;3.83;;;;;;;3.41;73.95;100942.09;5076228;28;42191;-82
2023/02/06 20:04:45;;;;;;;4.40;3.90;;;;;;;3.51;73.66;100970.00;5075888;28;41930;-82
2023/02/06 20:07:12;;;;;;;5.53;4.13;;;;;;;3.52;74.22;100961.28;5075954;28;41214;-86
2023/02/06 20:09:41;;;;;;;4.83;4.10;;;;;;;3.27;74.44;100921.13;5075717;28;39658;-84
2023/02/06 20:12:10;;;;;;;4.67;3.30;;;;;;;3.09;73.96;100893.19;5076093;28;40640;-83
2023/02/06 20:14:40;;;;;;;4.37;3.93;;;;;;;3.48;73.97;100956.91;5092772;28;42006;-82
2023/02/06 20:17:07;;;;;;;3.63;3.33;;;;;;;3.52;73.96;100956.91;5075988;28;43589;-83
2023/02/06 20:19:35;;;;;;;3.77;3.47;;;;;;;3.43;73.94;100953.44;5075516;28;40314;-86
2023/02/06 20:22:03;;;;;;;4.00;3.30;;;;;;;3.35;73.85;100931.59;5078314;28;41278;-82
2023/02/06 20:24:32;;;;;;;5.23;3.30;;;;;;;3.53;73.75;100957.78;5079548;28;43489;-81
2023/02/06 20:27:05;;;;;;;3.77;3.47;;;;;;;3.61;73.61;100975.25;5076122;28;40797;-81
2023/02/06 20:29:36;;;;;;;4.47;3.50;;;;;;;3.63;73.40;100975.25;5075716;28;38858;-84
2023/02/06 20:32:07;;;;;;;3.77;3.47;;;;;;;3.57;73.13;100954.31;5075460;28;41456;-82
2023/02/06 20:34:36;;;;;;;3.87;3.23;;;;;;;3.68;73.49;100973.50;5092351;28;44225;-83
2023/02/06 20:37:04;;;;;;;3.97;3.57;;;;;;;3.69;73.34;100967.41;5075535;28;42921;-85
2023/02/06 20:39:35;;;;;;;4.20;3.80;;;;;;;3.66;73.83;100959.53;5075723;28;39324;-83
2023/02/06 20:42:17;;;;;;;4.17;3.13;;;;;;;3.48;73.41;100928.97;5076805;28;41906;-85
2023/02/06 20:44:45;;;;;;;4.90;3.67;;;;;;;3.70;73.67;100955.19;5074652;28;42097;-83
2023/02/06 20:47:17;;;;;;;4.93;3.87;;;;;;;3.52;73.90;100941.19;5076028;28;41136;-85
2023/02/06 20:49:45;;;;;;;3.63;3.10;;;;;;;3.14;73.40;100880.97;5075657;28;40100;-85
2023/02/06 20:52:13;;;;;;;4.90;3.63;;;;;;;3.45;73.91;100949.06;5075613;28;42107;-84
2023/02/06 20:54:44;;;;;;;4.47;3.63;;;;;;;3.19;73.87;100909.78;5075143;28;43586;-83
2023/02/06 20:57:14;;;;;;;4.43;3.60;;;;;;;3.25;74.01;100925.47;5075494;28;41207;-85
2023/02/06 20:59:42;;;;;;;4.50;3.83;;;;;;;3.42;74.03;100951.69;5074593;28;39474;-83
2023/02/06 21:02:10;;;;;;;4.20;3.67;;;;;;;3.20;74.21;100917.66;5075373;28;41376;-85
2023/02/06 21:04:40;;;;;;;3.70;3.13;;;;;;;3.47;74.30;100970.88;5075186;28;41605;-83
2023/02/06 21:07:08;;;;;;;4.73;4.10;;;;;;;3.44;74.13;100963.03;5075437;28;41249;-84
2023/02/06 21:09:36;;;;;;;4.97;3.77;;;;;;;3.44;74.19;100950.81;5074820;28;40986;-85
2023/02/06 21:12:04;;;;;;;5.33;4.43;;;;;;;3.47;74.35;100957.78;5070535;28;40671;-86
2023/02/06 21:14:32;;;;;;;4.10;3.70;;;;;;;3.45;74.45;100951.69;5072680;28;44355;-83
2023/02/06 21:17:00;;;;;;;5.07;4.10;;;;;;;3.58;74.15;100982.25;5073651;28;41474;-82
2023/02/06 21:19:28;;;;;;;4.83;3.77;;;;;;;3.47;74.17;100952.53;5074483;28;40219;-83
2023/02/06 21:21:59;;;;;;;5.20;4.40;;;;;;;3.54;74.56;100964.78;5068418;28;43282;-84
2023/02/06 21:24:27;;;;;;;4.40;3.73;;;;;;;3.21;74.45;100908.91;5074439;28;41787;-81
2023/02/06 21:26:55;;;;;;;5.33;4.20;;;;;;;3.63;74.47;100984.84;5092549;28;42388;-84
2023/02/06 21:29:23;;;;;;;4.80;4.10;;;;;;;3.61;74.80;100980.50;5091351;28;40214;-81
2023/02/06 21:31:51;;;;;;;4.30;3.80;;;;;;;3.60;74.47;100981.38;5091103;28;42070;-80
2023/02/06 21:34:22;;;;;;;4.87;3.67;;;;;;;3.61;74.71;100983.09;5092720;28;44260;-84
2023/02/06 21:36:50;;;;;;;4.30;3.83;;;;;;;3.63;74.74;100985.72;5074493;28;41425;-81
2023/02/06 21:39:23;;;;;;;4.07;3.57;;;;;;;3.52;75.12;100967.41;5092683;28;40879;-83
2023/02/06 21:41:52;;;;;;;4.70;3.53;;;;;;;3.53;74.63;100969.16;5089203;28;41882;-82
2023/02/06 21:44:22;;;;;;;5.50;4.00;;;;;;;3.55;75.41;100977.00;5091433;28;42163;-81
2023/02/06 21:46:50;;;;;;;5.47;4.10;;;;;;;3.61;74.97;100990.09;5091305;28;44583;-83
2023/02/06 21:49:18;;;;;;;5.67;4.03;;;;;;;3.57;75.09;100980.50;5091622;28;40874;-85
2023/02/06 21:51:46;;;;;;;5.00;3.90;;;;;;;3.47;75.10;100955.16;5091028;28;42950;-80
2023/02/06 21:54:13;;;;;;;5.00;4.50;;;;;;;3.57;75.15;100980.50;5091285;28;43360;-81
2023/02/06 21:56:43;;;;;;;5.40;4.30;;;;;;;3.63;75.19;100987.47;5092092;28;42574;-82
